sensor_id;sensor_type;location;lat;lon;timestamp;pressure;altitude;pressure_sealevel;temperature;humidity
43934;BME280;59081;42.706;23.306;2023-04-05T00:00:17;94500.00;;;-2.81;100.00
43934;BME280;59081;42.706;23.306;2023-04-05T00:02:58;94682.53;;;-1.47;100.00
43934;BME280;59081;42.706;23.306;2023-04-05T00:08:27;94516.38;;;-2.63;100.00
43934;BME280;59081;42.706;23.306;2023-04-05T00:11:05;94603.13;;;-2.20;100.00
43934;BME280;59081;42.706;23.306;2023-04-05T00:13:55;94782.50;;;-1.07;100.00
43934;BME280;59081;42.706;23.306;2023-04-05T00:19:27;94479.31;;;-2.69;100.00
43934;BME280;59081;42.706;23.306;2023-04-05T00:22:06;94577.41;;;-2.07;100.00
43934;BME280;59081;42.706;23.306;2023-04-05T00:24:43;94602.53;;;-2.03;100.00
43934;BME280;59081;42.706;23.306;2023-04-05T00:27:25;94555.88;;;-2.44;100.00
43934;BME280;59081;42.706;23.306;2023-04-05T00:30:00;94791.50;;;-0.92;100.00
43934;BME280;59081;42.706;23.306;2023-04-05T00:35:55;94718.78;;;-1.08;100.00
43934;BME280;59081;42.706;23.306;2023-04-05T00:38:37;94681.72;;;-1.51;100.00
43934;BME280;59081;42.706;23.306;2023-04-05T00:44:12;94680.84;;;-1.62;100.00
43934;BME280;59081;42.706;23.306;2023-04-05T00:46:47;94740.28;;;-1.18;100.00
43934;BME280;59081;42.706;23.306;2023-04-05T00:49:28;94458.28;;;-2.90;100.00
43934;BME280;59081;42.706;23.306;2023-04-05T00:52:31;94662.66;;;-1.65;100.00
43934;BME280;59081;42.706;23.306;2023-04-05T00:55:10;94787.22;;;-0.96;100.00
43934;BME280;59081;42.706;23.306;2023-04-05T00:57:44;94588.75;;;-2.31;100.00
43934;BME280;59081;42.706;23.306;2023-04-05T01:00:36;94647.41;;;-1.88;100.00
43934;BME280;59081;42.706;23.306;2023-04-05T01:03:17;94641.59;;;-1.90;100.00
43934;BME280;59081;42.706;23.306;2023-04-05T01:11:19;94591.84;;;-2.29;100.00
43934;BME280;59081;42.706;23.306;2023-04-05T01:13:59;94614.00;;;-2.13;100.00
43934;BME280;59081;42.706;23.306;2023-04-05T01:16:55;94758.97;;;-1.02;100.00
43934;BME280;59081;42.706;23.306;2023-04-05T01:19:51;94512.44;;;-2.69;100.00
43934;BME280;59081;42.706;23.306;2023-04-05T01:28:52;94794.34;;;-0.78;100.00
43934;BME280;59081;42.706;23.306;2023-04-05T01:37:14;94629.34;;;-1.80;100.00
43934;BME280;59081;42.706;23.306;2023-04-05T01:40:01;94510.31;;;-2.53;100.00
43934;BME280;59081;42.706;23.306;2023-04-05T01:42:49;94553.59;;;-2.38;100.00
43934;BME280;59081;42.706;23.306;2023-04-05T01:45:18;94522.84;;;-2.67;100.00
43934;BME280;59081;42.706;23.306;2023-04-05T01:47:56;94634.22;;;-1.96;100.00
43934;BME280;59081;42.706;23.306;2023-04-05T01:50:25;94476.00;;;-2.89;100.00
43934;BME280;59081;42.706;23.306;2023-04-05T01:52:57;94531.97;;;-2.46;100.00
43934;BME280;59081;42.706;23.306;2023-04-05T01:55:29;94815.72;;;-0.62;100.00
43934;BME280;59081;42.706;23.306;2023-04-05T01:58:03;94687.88;;;-1.51;100.00
43934;BME280;59081;42.706;23.306;2023-04-05T02:00:45;94516.00;;;-2.58;100.00
43934;BME280;59081;42.706;23.306;2023-04-05T02:03:20;94498.88;;;-2.76;100.00
43934;BME280;59081;42.706;23.306;2023-04-05T02:06:00;94810.63;;;-0.71;100.00
43934;BME280;59081;42.706;23.306;2023-04-05T02:08:38;94491.88;;;-2.47;99.71
43934;BME280;59081;42.706;23.306;2023-04-05T02:11:22;94589.06;;;-1.99;98.89
43934;BME280;59081;42.706;23.306;2023-04-05T02:14:09;94797.91;;;-0.70;100.00
43934;BME280;59081;42.706;23.306;2023-04-05T02:16:48;94541.94;;;-2.50;99.47
43934;BME280;59081;42.706;23.306;2023-04-05T02:19:21;94497.66;;;-2.82;99.75
43934;BME280;59081;42.706;23.306;2023-04-05T02:21:59;94553.25;;;-2.33;99.79
43934;BME280;59081;42.706;23.306;2023-04-05T02:25:18;94806.50;;;-0.57;99.08
43934;BME280;59081;42.706;23.306;2023-04-05T02:28:00;94547.88;;;-2.33;98.99
43934;BME280;59081;42.706;23.306;2023-04-05T02:30:37;94627.81;;;-1.81;99.04
43934;BME280;59081;42.706;23.306;2023-04-05T02:33:42;94630.03;;;-1.90;99.98
43934;BME280;59081;42.706;23.306;2023-04-05T02:36:27;94613.41;;;-1.96;99.52
43934;BME280;59081;42.706;23.306;2023-04-05T02:39:04;94614.13;;;-1.99;99.63
43934;BME280;59081;42.706;23.306;2023-04-05T02:41:56;94545.63;;;-2.24;98.67
43934;BME280;59081;42.706;23.306;2023-04-05T02:44:34;94540.47;;;-2.43;99.05
43934;BME280;59081;42.706;23.306;2023-04-05T02:47:03;94503.88;;;-2.78;100.00
43934;BME280;59081;42.706;23.306;2023-04-05T02:49:32;94632.09;;;-1.77;100.00
43934;BME280;59081;42.706;23.306;2023-04-05T02:52:09;94815.28;;;-0.67;100.00
43934;BME280;59081;42.706;23.306;2023-04-05T02:54:53;94571.16;;;-2.18;99.06
43934;BME280;59081;42.706;23.306;2023-04-05T02:57:33;94632.19;;;-1.66;99.28
43934;BME280;59081;42.706;23.306;2023-04-05T03:00:18;94527.34;;;-2.41;99.66
43934;BME280;59081;42.706;23.306;2023-04-05T03:02:47;94683.31;;;-1.47;100.00
43934;BME280;59081;42.706;23.306;2023-04-05T03:05:13;94675.56;;;-1.48;100.00
43934;BME280;59081;42.706;23.306;2023-04-05T03:07:51;94609.19;;;-1.93;100.00
43934;BME280;59081;42.706;23.306;2023-04-05T03:10:23;94698.97;;;-1.22;100.00
43934;BME280;59081;42.706;23.306;2023-04-05T03:12:59;94791.44;;;-0.55;100.00
43934;BME280;59081;42.706;23.306;2023-04-05T03:15:34;94642.16;;;-1.70;100.00
43934;BME280;59081;42.706;23.306;2023-04-05T03:18:17;94536.53;;;-2.50;100.00
43934;BME280;59081;42.706;23.306;2023-04-05T03:21:00;94639.47;;;-1.73;100.00
43934;BME280;59081;42.706;23.306;2023-04-05T03:24:00;94629.66;;;-1.89;100.00
43934;BME280;59081;42.706;23.306;2023-04-05T03:26:35;94638.03;;;-1.60;100.00
43934;BME280;59081;42.706;23.306;2023-04-05T03:29:01;94709.34;;;-1.28;100.00
43934;BME280;59081;42.706;23.306;2023-04-05T03:31:30;94528.06;;;-2.48;100.00
43934;BME280;59081;42.706;23.306;2023-04-05T03:34:10;94734.19;;;-1.12;100.00
43934;BME280;59081;42.706;23.306;2023-04-05T03:36:39;94739.19;;;-1.14;100.00
43934;BME280;59081;42.706;23.306;2023-04-05T03:39:20;94624.28;;;-1.85;100.00
43934;BME280;59081;42.706;23.306;2023-04-05T03:42:17;94703.97;;;-1.24;100.00
43934;BME280;59081;42.706;23.306;2023-04-05T03:44:57;94500.19;;;-2.63;100.00
43934;BME280;59081;42.706;23.306;2023-04-05T03:47:35;94585.72;;;-2.26;100.00
43934;BME280;59081;42.706;23.306;2023-04-05T03:50:03;94810.25;;;-0.69;100.00
43934;BME280;59081;42.706;23.306;2023-04-05T03:52:44;94697.91;;;-1.51;100.00
43934;BME280;59081;42.706;23.306;2023-04-05T03:55:22;94645.06;;;-1.89;100.00
43934;BME280;59081;42.706;23.306;2023-04-05T03:58:14;94641.75;;;-1.72;100.00
43934;BME280;59081;42.706;23.306;2023-04-05T04:00:46;94611.41;;;-2.02;100.00
43934;BME280;59081;42.706;23.306;2023-04-05T04:03:20;94509.00;;;-2.66;100.00
43934;BME280;59081;42.706;23.306;2023-04-05T04:05:51;94502.72;;;-2.77;100.00
43934;BME280;59081;42.706;23.306;2023-04-05T04:08:26;94610.84;;;-2.19;100.00
43934;BME280;59081;42.706;23.306;2023-04-05T04:10:58;94613.63;;;-2.12;100.00
43934;BME280;59081;42.706;23.306;2023-04-05T04:13:29;94604.81;;;-2.08;100.00
43934;BME280;59081;42.706;23.306;2023-04-05T04:16:05;94712.00;;;-1.31;100.00
43934;BME280;59081;42.706;23.306;2023-04-05T04:18:35;94752.72;;;-1.10;100.00
43934;BME280;59081;42.706;23.306;2023-04-05T04:21:07;94755.34;;;-1.17;100.00
43934;BME280;59081;42.706;23.306;2023-04-05T04:23:43;94590.72;;;-2.25;100.00
43934;BME280;59081;42.706;23.306;2023-04-05T04:26:10;94572.84;;;-2.40;100.00
43934;BME280;59081;42.706;23.306;2023-04-05T04:28:46;94664.81;;;-1.82;100.00
43934;BME280;59081;42.706;23.306;2023-04-05T04:31:20;94705.97;;;-1.58;100.00
43934;BME280;59081;42.706;23.306;2023-04-05T04:33:56;94647.22;;;-1.68;100.00
43934;BME280;59081;42.706;23.306;2023-04-05T04:39:37;94702.34;;;-1.69;100.00
43934;BME280;59081;42.706;23.306;2023-04-05T04:42:03;94719.56;;;-1.48;100.00
43934;BME280;59081;42.706;23.306;2023-04-05T04:44:36;94792.94;;;-1.05;100.00
43934;BME280;59081;42.706;23.306;2023-04-05T04:47:02;94679.09;;;-1.81;100.00
43934;BME280;59081;42.706;23.306;2023-04-05T04:49:34;94639.75;;;-1.82;100.00
43934;BME280;59081;42.706;23.306;2023-04-05T04:52:00;94841.72;;;-0.47;100.00
43934;BME280;59081;42.706;23.306;2023-04-05T04:54:35;94566.66;;;-2.40;100.00
43934;BME280;59081;42.706;23.306;2023-04-05T04:57:15;94850.06;;;-0.66;100.00
43934;BME280;59081;42.706;23.306;2023-04-05T04:59:53;94850.16;;;-0.59;100.00
43934;BME280;59081;42.706;23.306;2023-04-05T05:02:34;94596.84;;;-2.31;100.00
43934;BME280;59081;42.706;23.306;2023-04-05T05:05:12;94611.94;;;-2.23;100.00
43934;BME280;59081;42.706;23.306;2023-04-05T05:07:50;94713.41;;;-1.45;100.00
43934;BME280;59081;42.706;23.306;2023-04-05T05:13:30;94705.69;;;-1.46;100.00
43934;BME280;59081;42.706;23.306;2023-04-05T05:15:56;94612.47;;;-2.11;100.00
43934;BME280;59081;42.706;23.306;2023-04-05T05:18:36;94753.44;;;-1.17;100.00
43934;BME280;59081;42.706;23.306;2023-04-05T05:21:22;94807.56;;;-0.65;100.00
43934;BME280;59081;42.706;23.306;2023-04-05T05:23:51;94571.41;;;-2.30;100.00
43934;BME280;59081;42.706;23.306;2023-04-05T05:26:36;94712.69;;;-1.38;100.00
43934;BME280;59081;42.706;23.306;2023-04-05T05:29:11;94572.94;;;-2.33;100.00
43934;BME280;59081;42.706;23.306;2023-04-05T05:35:05;94867.72;;;-0.39;99.95
43934;BME280;59081;42.706;23.306;2023-04-05T05:41:29;94609.78;;;-2.07;98.84
43934;BME280;59081;42.706;23.306;2023-04-05T05:49:58;94747.41;;;-0.99;97.95
43934;BME280;59081;42.706;23.306;2023-04-05T05:52:29;94677.25;;;-1.33;97.04
43934;BME280;59081;42.706;23.306;2023-04-05T05:55:03;94757.47;;;-0.96;97.33
43934;BME280;59081;42.706;23.306;2023-04-05T05:57:34;94534.06;;;-2.25;96.79
43934;BME280;59081;42.706;23.306;2023-04-05T06:00:29;94842.81;;;-0.07;97.13
43934;BME280;59081;42.706;23.306;2023-04-05T06:03:42;94559.31;;;-1.62;95.93
43934;BME280;59081;42.706;23.306;2023-04-05T06:06:33;94693.19;;;-0.69;94.20
43934;BME280;59081;42.706;23.306;2023-04-05T06:09:07;94569.00;;;-1.58;92.70
43934;BME280;59081;42.706;23.306;2023-04-05T06:11:36;94720.06;;;-0.36;92.63
43934;BME280;59081;42.706;23.306;2023-04-05T06:14:07;94694.16;;;-0.37;87.90
43934;BME280;59081;42.706;23.306;2023-04-05T06:16:48;94547.41;;;-2.02;93.22
43934;BME280;59081;42.706;23.306;2023-04-05T06:19:15;94751.13;;;-0.71;94.98
43934;BME280;59081;42.706;23.306;2023-04-05T06:21:50;94706.00;;;-0.59;89.88
43934;BME280;59081;42.706;23.306;2023-04-05T06:24:29;94705.53;;;-0.68;89.56
43934;BME280;59081;42.706;23.306;2023-04-05T06:27:04;94779.31;;;-0.17;90.39
43934;BME280;59081;42.706;23.306;2023-04-05T06:29:34;94603.13;;;-1.32;89.89
43934;BME280;59081;42.706;23.306;2023-04-05T06:32:06;94764.63;;;-0.12;89.71
43934;BME280;59081;42.706;23.306;2023-04-05T06:34:35;94574.91;;;-1.38;89.62
43934;BME280;59081;42.706;23.306;2023-04-05T06:37:06;94782.09;;;0.01;88.94
43934;BME280;59081;42.706;23.306;2023-04-05T06:39:35;94619.84;;;-1.16;88.77
43934;BME280;59081;42.706;23.306;2023-04-05T06:42:25;94765.47;;;-0.05;88.58
43934;BME280;59081;42.706;23.306;2023-04-05T06:44:53;94798.84;;;0.14;86.91
43934;BME280;59081;42.706;23.306;2023-04-05T06:47:23;94725.81;;;-0.41;87.19
43934;BME280;59081;42.706;23.306;2023-04-05T06:50:02;94569.78;;;-1.54;87.29
43934;BME280;59081;42.706;23.306;2023-04-05T06:52:33;94681.97;;;-0.68;86.23
43934;BME280;59081;42.706;23.306;2023-04-05T06:54:59;94607.69;;;-0.88;84.04
43934;BME280;59081;42.706;23.306;2023-04-05T06:57:29;94781.44;;;0.22;83.33
43934;BME280;59081;42.706;23.306;2023-04-05T06:59:55;94761.63;;;0.00;83.73
43934;BME280;59081;42.706;23.306;2023-04-05T07:02:23;94736.00;;;-0.17;84.54
43934;BME280;59081;42.706;23.306;2023-04-05T07:04:49;94786.06;;;0.14;83.99
43934;BME280;59081;42.706;23.306;2023-04-05T07:07:15;94830.28;;;0.36;84.37
43934;BME280;59081;42.706;23.306;2023-04-05T07:09:44;94611.81;;;-1.09;83.74
43934;BME280;59081;42.706;23.306;2023-04-05T07:12:15;94685.94;;;-0.55;83.45
43934;BME280;59081;42.706;23.306;2023-04-05T07:14:41;94731.34;;;-0.23;84.32
43934;BME280;59081;42.706;23.306;2023-04-05T07:17:07;94661.50;;;-0.65;83.52
43934;BME280;59081;42.706;23.306;2023-04-05T07:19:35;94826.78;;;0.35;83.30
43934;BME280;59081;42.706;23.306;2023-04-05T07:22:07;94754.56;;;-0.19;84.72
43934;BME280;59081;42.706;23.306;2023-04-05T07:24:35;94940.19;;;1.10;84.23
43934;BME280;59081;42.706;23.306;2023-04-05T07:27:06;94624.75;;;-0.77;84.05
43934;BME280;59081;42.706;23.306;2023-04-05T07:29:32;94922.41;;;1.16;83.34
43934;BME280;59081;42.706;23.306;2023-04-05T07:32:11;94929.38;;;1.13;84.00
43934;BME280;59081;42.706;23.306;2023-04-05T07:34:40;94874.16;;;0.70;83.53
43934;BME280;59081;42.706;23.306;2023-04-05T07:37:06;94937.88;;;1.12;83.46
43934;BME280;59081;42.706;23.306;2023-04-05T07:39:34;94801.31;;;0.47;83.17
43934;BME280;59081;42.706;23.306;2023-04-05T07:42:06;94652.16;;;-0.79;82.60
43934;BME280;59081;42.706;23.306;2023-04-05T07:44:46;94671.94;;;-0.64;83.36
43934;BME280;59081;42.706;23.306;2023-04-05T07:47:17;94770.38;;;-0.24;83.02
43934;BME280;59081;42.706;23.306;2023-04-05T07:49:43;94768.88;;;-0.18;83.44
43934;BME280;59081;42.706;23.306;2023-04-05T07:52:09;94942.84;;;0.95;82.75
43934;BME280;59081;42.706;23.306;2023-04-05T07:54:36;94855.53;;;0.51;82.21
43934;BME280;59081;42.706;23.306;2023-04-05T07:57:15;94663.09;;;-0.57;81.20
43934;BME280;59081;42.706;23.306;2023-04-05T07:59:41;94790.56;;;-0.11;82.11
43934;BME280;59081;42.706;23.306;2023-04-05T08:02:09;94884.13;;;0.45;82.66
43934;BME280;59081;42.706;23.306;2023-04-05T08:04:35;94708.50;;;-0.84;82.48
43934;BME280;59081;42.706;23.306;2023-04-05T08:07:05;94740.47;;;-0.46;82.40
43934;BME280;59081;42.706;23.306;2023-04-05T08:09:35;94687.94;;;-0.41;81.46
43934;BME280;59081;42.706;23.306;2023-04-05T08:12:03;94974.34;;;1.18;81.13
43934;BME280;59081;42.706;23.306;2023-04-05T08:14:39;94646.69;;;-0.89;81.80
43934;BME280;59081;42.706;23.306;2023-04-05T08:17:15;94876.75;;;0.42;82.35
43934;BME280;59081;42.706;23.306;2023-04-05T08:19:44;94802.50;;;-0.19;82.96
43934;BME280;59081;42.706;23.306;2023-04-05T08:22:14;94971.88;;;0.88;83.11
43934;BME280;59081;42.706;23.306;2023-04-05T08:24:47;94775.34;;;-0.33;82.54
43934;BME280;59081;42.706;23.306;2023-04-05T08:27:18;94816.00;;;-0.26;83.74
43934;BME280;59081;42.706;23.306;2023-04-05T08:29:44;94698.94;;;-0.75;82.91
43934;BME280;59081;42.706;23.306;2023-04-05T08:32:13;94905.19;;;0.76;82.58
43934;BME280;59081;42.706;23.306;2023-04-05T08:34:41;94923.78;;;0.74;81.85
43934;BME280;59081;42.706;23.306;2023-04-05T08:37:12;94748.13;;;-0.58;82.21
43934;BME280;59081;42.706;23.306;2023-04-05T08:39:41;94693.72;;;-1.01;81.99
43934;BME280;59081;42.706;23.306;2023-04-05T08:42:22;94674.56;;;-0.78;81.89
43934;BME280;59081;42.706;23.306;2023-04-05T08:44:56;94928.97;;;1.15;81.20
43934;BME280;59081;42.706;23.306;2023-04-05T08:47:27;94720.09;;;-0.25;80.26
43934;BME280;59081;42.706;23.306;2023-04-05T08:50:14;94712.13;;;-0.66;82.01
43934;BME280;59081;42.706;23.306;2023-04-05T08:55:50;94924.94;;;0.77;85.84
43934;BME280;59081;42.706;23.306;2023-04-05T09:06:11;94844.66;;;0.47;84.48
43934;BME280;59081;42.706;23.306;2023-04-05T09:08:53;94746.13;;;-0.03;81.77
43934;BME280;59081;42.706;23.306;2023-04-05T09:11:39;94753.69;;;-0.33;83.20
43934;BME280;59081;42.706;23.306;2023-04-05T09:16:56;94721.38;;;-0.67;82.13
43934;BME280;59081;42.706;23.306;2023-04-05T09:19:26;94949.53;;;1.23;82.48
43934;BME280;59081;42.706;23.306;2023-04-05T09:22:13;94764.50;;;-0.37;82.79
43934;BME280;59081;42.706;23.306;2023-04-05T09:24:49;94677.91;;;-0.99;82.22
43934;BME280;59081;42.706;23.306;2023-04-05T09:27:53;94832.94;;;0.25;81.54
43934;BME280;59081;42.706;23.306;2023-04-05T09:39:39;94815.25;;;0.56;79.36
43934;BME280;59081;42.706;23.306;2023-04-05T09:42:15;94995.44;;;1.63;78.68
43934;BME280;59081;42.706;23.306;2023-04-05T09:45:00;94965.53;;;1.60;79.75
43934;BME280;59081;42.706;23.306;2023-04-05T09:47:32;94697.69;;;-0.22;78.13
43934;BME280;59081;42.706;23.306;2023-04-05T09:52:46;94841.19;;;0.47;78.31
43934;BME280;59081;42.706;23.306;2023-04-05T09:55:51;94725.13;;;-0.24;77.66
43934;BME280;59081;42.706;23.306;2023-04-05T09:58:23;94785.44;;;0.49;76.41
43934;BME280;59081;42.706;23.306;2023-04-05T10:01:03;94823.41;;;0.56;75.66
43934;BME280;59081;42.706;23.306;2023-04-05T10:03:53;94714.91;;;-0.55;76.39
43934;BME280;59081;42.706;23.306;2023-04-05T10:09:57;95002.72;;;1.45;74.80
43934;BME280;59081;42.706;23.306;2023-04-05T10:13:01;94734.38;;;-0.28;74.58
43934;BME280;59081;42.706;23.306;2023-04-05T10:15:49;94729.03;;;-0.21;72.71
43934;BME280;59081;42.706;23.306;2023-04-05T10:18:31;94744.28;;;0.15;72.24
43934;BME280;59081;42.706;23.306;2023-04-05T10:21:13;95002.50;;;2.14;70.76
43934;BME280;59081;42.706;23.306;2023-04-05T10:24:07;94958.94;;;1.50;72.35
43934;BME280;59081;42.706;23.306;2023-04-05T10:26:49;94723.78;;;0.21;71.78
43934;BME280;59081;42.706;23.306;2023-04-05T10:29:33;94748.00;;;1.19;70.77
43934;BME280;59081;42.706;23.306;2023-04-05T10:32:26;94943.09;;;2.59;68.73
43934;BME280;59081;42.706;23.306;2023-04-05T10:35:14;94919.44;;;2.20;69.95
43934;BME280;59081;42.706;23.306;2023-04-05T10:40:31;94740.25;;;1.14;68.89
43934;BME280;59081;42.706;23.306;2023-04-05T10:43:14;94755.75;;;1.31;68.47
43934;BME280;59081;42.706;23.306;2023-04-05T10:45:48;94799.94;;;1.67;68.72
43934;BME280;59081;42.706;23.306;2023-04-05T10:51:01;94758.41;;;1.73;66.31
43934;BME280;59081;42.706;23.306;2023-04-05T10:53:49;94723.19;;;1.13;65.75
43934;BME280;59081;42.706;23.306;2023-04-05T10:56:23;94784.38;;;0.89;68.01
43934;BME280;59081;42.706;23.306;2023-04-05T10:58:56;94761.94;;;1.24;67.63
43934;BME280;59081;42.706;23.306;2023-04-05T11:11:03;95010.94;;;3.23;72.01
43934;BME280;59081;42.706;23.306;2023-04-05T11:13:50;94954.38;;;2.39;68.55
43934;BME280;59081;42.706;23.306;2023-04-05T11:16:17;94855.78;;;1.64;70.95
43934;BME280;59081;42.706;23.306;2023-04-05T11:18:47;94855.00;;;2.14;66.49
43934;BME280;59081;42.706;23.306;2023-04-05T11:21:21;94778.94;;;1.92;65.67
43934;BME280;59081;42.706;23.306;2023-04-05T11:24:17;95019.59;;;2.71;67.55
43934;BME280;59081;42.706;23.306;2023-04-05T11:27:00;95017.66;;;2.75;68.40
43934;BME280;59081;42.706;23.306;2023-04-05T11:29:45;94981.00;;;3.15;68.45
43934;BME280;59081;42.706;23.306;2023-04-05T11:35:13;94763.44;;;2.00;64.25
43934;BME280;59081;42.706;23.306;2023-04-05T11:40:32;94842.13;;;3.30;62.22
43934;BME280;59081;42.706;23.306;2023-04-05T11:43:07;94759.19;;;2.86;61.22
43934;BME280;59081;42.706;23.306;2023-04-05T11:45:37;94795.75;;;2.78;61.39
43934;BME280;59081;42.706;23.306;2023-04-05T11:48:14;94724.31;;;2.67;61.82
43934;BME280;59081;42.706;23.306;2023-04-05T11:50:44;94894.63;;;3.89;60.71
43934;BME280;59081;42.706;23.306;2023-04-05T11:53:24;94729.56;;;3.02;59.59
43934;BME280;59081;42.706;23.306;2023-04-05T11:55:53;94862.47;;;3.70;60.56
43934;BME280;59081;42.706;23.306;2023-04-05T12:01:04;94742.97;;;3.75;60.15
43934;BME280;59081;42.706;23.306;2023-04-05T12:03:38;94955.06;;;5.75;57.86
43934;BME280;59081;42.706;23.306;2023-04-05T12:06:08;94731.00;;;4.68;55.88
43934;BME280;59081;42.706;23.306;2023-04-05T12:08:45;94851.53;;;4.63;57.57
43934;BME280;59081;42.706;23.306;2023-04-05T12:11:25;95022.75;;;4.89;61.49
43934;BME280;59081;42.706;23.306;2023-04-05T12:14:04;94725.13;;;3.23;60.51
43934;BME280;59081;42.706;23.306;2023-04-05T12:16:35;95013.13;;;4.77;61.33
43934;BME280;59081;42.706;23.306;2023-04-05T12:19:03;94814.94;;;3.23;62.84
43934;BME280;59081;42.706;23.306;2023-04-05T12:24:22;94921.84;;;3.30;63.82
43934;BME280;59081;42.706;23.306;2023-04-05T12:26:51;94927.63;;;3.43;65.07
43934;BME280;59081;42.706;23.306;2023-04-05T12:29:22;95009.88;;;3.90;65.36
43934;BME280;59081;42.706;23.306;2023-04-05T12:31:57;94772.34;;;1.97;66.40
43934;BME280;59081;42.706;23.306;2023-04-05T12:34:26;94792.19;;;1.72;67.92
43934;BME280;59081;42.706;23.306;2023-04-05T12:36:52;94917.44;;;2.53;67.17
43934;BME280;59081;42.706;23.306;2023-04-05T12:39:28;94942.63;;;2.85;67.18
43934;BME280;59081;42.706;23.306;2023-04-05T12:42:04;94997.03;;;2.78;67.75
43934;BME280;59081;42.706;23.306;2023-04-05T12:44:33;94740.56;;;0.62;72.02
43934;BME280;59081;42.706;23.306;2023-04-05T12:47:03;94783.59;;;0.78;72.78
43934;BME280;59081;42.706;23.306;2023-04-05T12:49:50;94959.00;;;2.42;71.88
43934;BME280;59081;42.706;23.306;2023-04-05T12:52:25;94874.41;;;1.91;70.36
43934;BME280;59081;42.706;23.306;2023-04-05T12:55:00;94813.88;;;1.01;70.80
43934;BME280;59081;42.706;23.306;2023-04-05T12:57:35;94848.78;;;1.21;69.89
43934;BME280;59081;42.706;23.306;2023-04-05T13:00:23;95014.16;;;2.36;68.54
43934;BME280;59081;42.706;23.306;2023-04-05T13:02:55;94834.34;;;0.92;69.41
43934;BME280;59081;42.706;23.306;2023-04-05T13:05:29;94751.75;;;0.47;69.98
43934;BME280;59081;42.706;23.306;2023-04-05T13:07:58;94877.50;;;1.36;69.79
43934;BME280;59081;42.706;23.306;2023-04-05T13:10:30;94766.53;;;0.67;68.77
43934;BME280;59081;42.706;23.306;2023-04-05T13:13:06;95012.63;;;2.35;68.95
43934;BME280;59081;42.706;23.306;2023-04-05T13:15:44;95002.50;;;2.28;68.92
43934;BME280;59081;42.706;23.306;2023-04-05T13:18:10;94772.63;;;0.43;69.65
43934;BME280;59081;42.706;23.306;2023-04-05T13:20:51;94892.97;;;1.28;69.72
43934;BME280;59081;42.706;23.306;2023-04-05T13:23:27;95033.16;;;2.25;69.45
43934;BME280;59081;42.706;23.306;2023-04-05T13:26:03;94754.81;;;0.42;69.23
43934;BME280;59081;42.706;23.306;2023-04-05T13:28:32;94867.78;;;1.28;70.17
43934;BME280;59081;42.706;23.306;2023-04-05T13:31:11;95030.47;;;2.75;68.69
43934;BME280;59081;42.706;23.306;2023-04-05T13:33:42;94900.03;;;1.90;68.05
43934;BME280;59081;42.706;23.306;2023-04-05T13:36:11;94845.72;;;1.54;68.71
43934;BME280;59081;42.706;23.306;2023-04-05T13:38:42;94934.94;;;2.44;68.52
43934;BME280;59081;42.706;23.306;2023-04-05T13:41:10;94788.31;;;1.59;67.84
43934;BME280;59081;42.706;23.306;2023-04-05T13:44:04;94764.28;;;1.54;67.99
43934;BME280;59081;42.706;23.306;2023-04-05T13:46:38;94976.03;;;2.89;68.68
43934;BME280;59081;42.706;23.306;2023-04-05T13:49:15;94958.19;;;2.74;68.26
43934;BME280;59081;42.706;23.306;2023-04-05T13:51:44;94835.53;;;2.29;67.37
43934;BME280;59081;42.706;23.306;2023-04-05T13:54:10;94859.06;;;2.93;65.99
43934;BME280;59081;42.706;23.306;2023-04-05T13:56:40;94796.19;;;2.66;64.01
43934;BME280;59081;42.706;23.306;2023-04-05T13:59:06;94843.41;;;3.11;63.46
43934;BME280;59081;42.706;23.306;2023-04-05T14:01:35;94900.41;;;3.43;63.31
43934;BME280;59081;42.706;23.306;2023-04-05T14:04:06;94820.78;;;3.25;62.75
43934;BME280;59081;42.706;23.306;2023-04-05T14:06:39;94839.63;;;3.53;61.52
43934;BME280;59081;42.706;23.306;2023-04-05T14:09:05;94964.19;;;5.35;59.15
43934;BME280;59081;42.706;23.306;2023-04-05T14:11:31;94781.72;;;4.31;57.28
43934;BME280;59081;42.706;23.306;2023-04-05T14:13:57;94882.91;;;4.78;57.60
43934;BME280;59081;42.706;23.306;2023-04-05T14:16:23;94929.16;;;4.92;58.14
43934;BME280;59081;42.706;23.306;2023-04-05T14:18:54;94899.94;;;4.07;58.59
43934;BME280;59081;42.706;23.306;2023-04-05T14:21:20;94925.53;;;4.24;59.25
43934;BME280;59081;42.706;23.306;2023-04-05T14:23:58;94793.41;;;2.84;60.43
43934;BME280;59081;42.706;23.306;2023-04-05T14:26:36;94880.50;;;3.49;60.56
43934;BME280;59081;42.706;23.306;2023-04-05T14:29:09;94817.78;;;3.01;60.51
43934;BME280;59081;42.706;23.306;2023-04-05T14:31:35;95055.38;;;4.59;60.46
43934;BME280;59081;42.706;23.306;2023-04-05T14:34:01;94912.09;;;3.40;60.86
43934;BME280;59081;42.706;23.306;2023-04-05T14:36:29;94828.47;;;2.60;61.87
43934;BME280;59081;42.706;23.306;2023-04-05T14:38:55;94786.00;;;1.72;63.00
43934;BME280;59081;42.706;23.306;2023-04-05T14:41:24;94906.25;;;2.22;64.85
43934;BME280;59081;42.706;23.306;2023-04-05T14:43:52;94888.34;;;2.28;64.95
43934;BME280;59081;42.706;23.306;2023-04-05T14:46:17;94844.53;;;2.05;64.90
43934;BME280;59081;42.706;23.306;2023-04-05T14:48:43;94835.59;;;2.15;65.30
43934;BME280;59081;42.706;23.306;2023-04-05T14:51:09;94843.34;;;2.09;64.74
43934;BME280;59081;42.706;23.306;2023-04-05T14:53:42;94925.25;;;2.01;66.36
43934;BME280;59081;42.706;23.306;2023-04-05T14:56:16;94867.41;;;1.33;67.46
43934;BME280;59081;42.706;23.306;2023-04-05T14:58:45;95067.75;;;2.50;69.01
43934;BME280;59081;42.706;23.306;2023-04-05T15:01:14;94800.94;;;0.56;69.76
43934;BME280;59081;42.706;23.306;2023-04-05T15:03:40;95028.88;;;2.10;70.75
43934;BME280;59081;42.706;23.306;2023-04-05T15:06:11;94850.72;;;1.20;69.82
43934;BME280;59081;42.706;23.306;2023-04-05T15:08:39;94924.03;;;1.59;69.52
43934;BME280;59081;42.706;23.306;2023-04-05T15:11:05;94893.34;;;1.23;71.47
43934;BME280;59081;42.706;23.306;2023-04-05T15:13:40;95074.69;;;2.01;72.74
43934;BME280;59081;42.706;23.306;2023-04-05T15:16:36;95025.75;;;1.94;72.84